createdAt,value
2023-02-11T00:01:02.219Z,11.52
2023-02-11T00:02:34.927Z,12.23
2023-02-11T00:04:07.691Z,12.07
2023-02-11T00:05:39.816Z,11.02
2023-02-11T00:07:11.868Z,11.23
2023-02-11T00:08:44.381Z,12.57
2023-02-11T00:10:16.679Z,18.10
2023-02-11T00:11:48.826Z,25.45
2023-02-11T00:13:21.075Z,22.45
2023-02-11T00:14:53.155Z,18.33
2023-02-11T00:16:25.205Z,13.48
2023-02-11T00:17:57.367Z,12.82
2023-02-11T00:19:29.330Z,11.52
2023-02-11T00:21:05.738Z,11.98
2023-02-11T00:22:37.706Z,13.00
2023-02-11T00:24:09.720Z,10.35
2023-02-11T00:25:43.069Z,11.48
2023-02-11T00:27:15.193Z,11.77
2023-02-11T00:28:48.160Z,10.88
2023-02-11T00:30:20.367Z,12.23
2023-02-11T00:31:52.542Z,10.43
2023-02-11T00:33:25.289Z,13.75
2023-02-11T00:34:57.297Z,12.57
2023-02-11T00:36:30.209Z,9.50
2023-02-11T00:38:02.260Z,11.57
2023-02-11T00:39:34.296Z,10.30
2023-02-11T00:41:06.408Z,12.82
2023-02-11T00:42:38.468Z,11.82
2023-02-11T00:44:11.274Z,12.23
2023-02-11T00:45:43.253Z,19.50
2023-02-11T00:47:15.287Z,22.65
2023-02-11T00:48:47.304Z,22.42
2023-02-11T00:50:19.344Z,20.45
2023-02-11T00:51:51.321Z,25.25
2023-02-11T00:53:23.378Z,22.63
2023-02-11T00:54:55.394Z,17.70
2023-02-11T00:56:27.611Z,11.68
2023-02-11T00:58:00.447Z,11.95
2023-02-11T00:59:32.440Z,11.98
2023-02-11T01:01:04.890Z,11.60
2023-02-11T01:02:37.000Z,18.33
2023-02-11T01:04:09.072Z,11.63
2023-02-11T01:05:41.197Z,14.25
2023-02-11T01:07:13.320Z,18.45
2023-02-11T01:08:45.364Z,29.98
2023-02-11T01:10:17.489Z,29.58
2023-02-11T01:11:49.544Z,27.38
2023-02-11T01:13:21.640Z,27.98
2023-02-11T01:14:53.669Z,29.90
2023-02-11T01:16:25.751Z,27.42
2023-02-11T01:17:57.816Z,27.30
2023-02-11T01:19:29.809Z,27.70
2023-02-11T01:21:01.853Z,18.52
2023-02-11T01:22:34.748Z,15.63
2023-02-11T01:24:07.055Z,11.93
2023-02-11T01:25:39.080Z,10.25
2023-02-11T01:27:11.063Z,10.63
2023-02-11T01:28:43.100Z,9.77
2023-02-11T01:30:15.550Z,9.93
2023-02-11T01:31:47.905Z,9.63
2023-02-11T01:33:20.616Z,8.18
2023-02-11T01:34:52.672Z,8.83
2023-02-11T01:36:24.696Z,8.40
2023-02-11T01:37:56.648Z,7.78
2023-02-11T01:39:28.682Z,8.18
2023-02-11T01:41:03.125Z,8.90
2023-02-11T01:42:35.155Z,9.52
2023-02-11T01:44:33.442Z,8.50
2023-02-11T01:46:14.298Z,9.85
2023-02-11T01:47:46.621Z,11.98
2023-02-11T01:49:31.542Z,14.38
2023-02-11T01:51:07.850Z,10.52
2023-02-11T01:52:41.378Z,9.27
2023-02-11T01:56:24.527Z,7.80
2023-02-11T01:58:01.111Z,8.90
2023-02-11T01:59:39.055Z,8.55
2023-02-11T02:01:13.905Z,9.93
2023-02-11T02:03:05.700Z,8.43
2023-02-11T02:04:42.960Z,10.27
2023-02-11T02:06:44.976Z,10.38
2023-02-11T02:08:32.917Z,9.73
2023-02-11T02:10:08.571Z,8.60
2023-02-11T02:11:40.572Z,7.50
2023-02-11T02:13:12.930Z,8.13
2023-02-11T02:14:44.891Z,8.50
2023-02-11T02:16:20.489Z,9.30
2023-02-11T02:18:01.229Z,12.18
2023-02-11T02:19:58.273Z,13.18
2023-02-11T02:22:00.879Z,15.60
2023-02-11T02:24:10.697Z,15.18
2023-02-11T02:26:31.011Z,18.30
2023-02-11T02:28:14.934Z,20.17
2023-02-11T02:32:06.076Z,20.67
2023-02-11T02:34:01.944Z,20.40
2023-02-11T02:35:48.956Z,19.10
2023-02-11T02:37:45.157Z,20.25
2023-02-11T02:39:27.977Z,19.48
2023-02-11T02:41:28.972Z,19.55
2023-02-11T02:43:02.526Z,20.65
2023-02-11T02:46:23.958Z,14.77
2023-02-11T02:47:56.417Z,14.23
2023-02-11T02:49:28.522Z,13.30
2023-02-11T02:51:30.649Z,12.02
2023-02-11T02:53:24.749Z,10.88
2023-02-11T02:54:56.657Z,9.23
2023-02-11T02:56:55.763Z,10.52
2023-02-11T02:58:44.308Z,10.57
2023-02-11T03:00:33.485Z,10.43
2023-02-11T03:02:30.736Z,8.75
2023-02-11T03:04:30.074Z,10.48
2023-02-11T03:06:12.788Z,7.60
2023-02-11T03:07:51.997Z,7.75
2023-02-11T03:09:32.552Z,8.48
2023-02-11T03:11:08.380Z,8.98
2023-02-11T03:12:42.956Z,8.13
2023-02-11T03:14:17.064Z,7.20
2023-02-11T03:15:53.349Z,8.05
2023-02-11T03:17:27.067Z,6.68
2023-02-11T03:20:53.655Z,6.43
2023-02-11T03:22:34.085Z,5.97
2023-02-11T03:24:13.426Z,6.70
2023-02-11T03:26:00.138Z,6.82
2023-02-11T03:27:47.681Z,6.00
2023-02-11T03:29:36.245Z,6.78
2023-02-11T03:31:18.107Z,7.07
2023-02-11T03:32:56.970Z,6.25
2023-02-11T03:34:47.128Z,6.13
2023-02-11T03:36:24.885Z,6.20
2023-02-11T03:38:20.457Z,6.70
2023-02-11T03:40:14.025Z,7.07
2023-02-11T03:41:48.226Z,5.90
2023-02-11T03:43:23.319Z,6.15
2023-02-11T03:45:01.418Z,6.53
2023-02-11T03:46:38.017Z,7.22
2023-02-11T03:48:15.664Z,6.40
2023-02-11T03:49:50.218Z,6.20
2023-02-11T03:51:23.945Z,6.13
2023-02-11T03:52:56.574Z,6.25
2023-02-11T03:54:31.409Z,7.28
2023-02-11T03:56:06.129Z,6.30
2023-02-11T03:57:38.395Z,6.35
2023-02-11T03:59:10.432Z,7.32
2023-02-11T04:00:43.280Z,6.47
2023-02-11T04:02:15.245Z,7.15
2023-02-11T04:03:47.325Z,6.90
2023-02-11T04:05:19.431Z,7.65
2023-02-11T04:06:51.379Z,10.35
2023-02-11T04:08:23.319Z,9.40
2023-02-11T04:09:55.428Z,15.30
2023-02-11T04:11:27.475Z,15.95
2023-02-11T04:12:59.618Z,14.70
2023-02-11T04:14:31.646Z,15.90
2023-02-11T04:16:03.828Z,15.70
2023-02-11T04:17:36.121Z,16.02
2023-02-11T04:19:08.306Z,18.75
2023-02-11T04:20:40.384Z,20.48
2023-02-11T04:22:12.384Z,17.67
2023-02-11T04:23:44.349Z,17.23
2023-02-11T04:25:16.516Z,17.80
2023-02-11T04:26:48.522Z,16.10
2023-02-11T04:28:20.615Z,13.52
2023-02-11T04:29:52.685Z,11.13
2023-02-11T04:31:24.897Z,10.63
2023-02-11T04:32:58.842Z,11.07
2023-02-11T04:34:31.045Z,18.55
2023-02-11T04:36:03.155Z,13.93
2023-02-11T04:37:36.025Z,11.10
2023-02-11T04:39:08.328Z,8.30
2023-02-11T04:40:40.901Z,7.03
2023-02-11T04:42:12.963Z,6.93
2023-02-11T04:43:44.968Z,7.68
2023-02-11T04:45:17.156Z,6.20
2023-02-11T04:46:49.188Z,7.00
2023-02-11T04:48:21.108Z,5.03
2023-02-11T04:49:53.201Z,5.25
2023-02-11T04:51:25.512Z,4.30
2023-02-11T04:52:57.594Z,5.80
2023-02-11T04:54:29.763Z,5.70
2023-02-11T04:56:02.114Z,6.50
2023-02-11T04:57:34.175Z,6.07
2023-02-11T04:59:06.374Z,7.32
2023-02-11T05:00:38.362Z,11.63
2023-02-11T05:02:10.309Z,10.30
2023-02-11T05:03:43.644Z,15.15
2023-02-11T05:05:15.645Z,15.27
2023-02-11T05:06:47.712Z,8.50
2023-02-11T05:08:19.640Z,6.63
2023-02-11T05:09:51.809Z,6.70
2023-02-11T05:11:25.735Z,7.78
2023-02-11T05:12:57.816Z,8.25
2023-02-11T05:14:29.947Z,8.00
2023-02-11T05:16:02.079Z,9.50
2023-02-11T05:17:34.065Z,10.90
2023-02-11T05:19:06.180Z,7.82
2023-02-11T05:20:39.314Z,10.60
2023-02-11T05:22:11.407Z,7.85
2023-02-11T05:23:43.690Z,7.25
2023-02-11T05:25:15.725Z,7.63
2023-02-11T05:26:47.711Z,8.10
2023-02-11T05:28:19.693Z,7.97
2023-02-11T05:29:51.657Z,9.15
2023-02-11T05:31:23.729Z,7.72
2023-02-11T05:32:55.709Z,7.88
2023-02-11T05:34:27.722Z,9.07
2023-02-11T05:36:00.832Z,10.52
2023-02-11T05:37:32.868Z,10.60
2023-02-11T05:39:04.958Z,11.05
2023-02-11T05:40:37.029Z,12.48
2023-02-11T05:42:09.068Z,14.55
2023-02-11T05:43:41.104Z,13.20
2023-02-11T05:45:13.127Z,13.82
2023-02-11T05:46:45.296Z,12.50
2023-02-11T05:48:18.121Z,10.15
2023-02-11T05:49:50.113Z,10.93
2023-02-11T05:51:22.227Z,13.55
2023-02-11T05:52:54.345Z,22.92
2023-02-11T05:54:26.678Z,16.67
2023-02-11T05:55:58.749Z,17.77
2023-02-11T05:57:30.747Z,19.65
2023-02-11T05:59:02.852Z,10.60
2023-02-11T06:00:35.548Z,9.27
2023-02-11T06:02:11.102Z,7.97
2023-02-11T06:03:43.149Z,11.10
2023-02-11T06:05:15.268Z,7.82
2023-02-11T06:06:47.373Z,7.40
2023-02-11T06:08:19.568Z,8.25
2023-02-11T06:09:51.537Z,6.43
2023-02-11T06:11:23.840Z,7.22
2023-02-11T06:12:55.953Z,7.20
2023-02-11T06:14:27.956Z,6.25
2023-02-11T06:16:01.444Z,5.90
2023-02-11T06:19:06.222Z,6.35
2023-02-11T06:20:41.122Z,6.18
2023-02-11T06:22:13.096Z,6.22
2023-02-11T06:23:45.204Z,5.47
2023-02-11T06:25:17.433Z,6.05
2023-02-11T06:26:49.780Z,5.60
2023-02-11T06:28:21.814Z,7.15
2023-02-11T06:29:53.882Z,7.43
2023-02-11T06:31:26.026Z,7.55
2023-02-11T06:32:58.181Z,7.40
2023-02-11T06:34:30.323Z,7.10
2023-02-11T06:36:02.789Z,7.00
2023-02-11T06:37:35.687Z,6.53
2023-02-11T06:39:08.594Z,5.72
2023-02-11T06:40:40.613Z,6.60
2023-02-11T06:42:12.693Z,6.50
2023-02-11T06:45:23.810Z,5.78
2023-02-11T06:46:55.840Z,5.55
2023-02-11T06:48:27.929Z,6.93
2023-02-11T06:49:59.944Z,6.10
2023-02-11T06:51:31.989Z,5.45
2023-02-11T06:53:04.037Z,5.40
2023-02-11T06:54:36.269Z,5.45
2023-02-11T06:56:11.292Z,6.40
2023-02-11T06:57:43.402Z,6.15
2023-02-11T06:59:21.071Z,5.82
2023-02-11T07:00:53.094Z,5.82
2023-02-11T07:02:25.139Z,5.95
2023-02-11T07:03:57.314Z,5.90
2023-02-11T07:05:29.452Z,6.13
2023-02-11T07:07:01.550Z,5.75
2023-02-11T07:08:34.328Z,5.97
2023-02-11T07:10:06.953Z,7.72
2023-02-11T07:11:38.982Z,8.85
2023-02-11T07:13:11.208Z,9.50
2023-02-11T07:14:43.282Z,10.13
2023-02-11T07:16:17.852Z,13.65
2023-02-11T07:17:49.933Z,15.93
2023-02-11T07:19:22.143Z,13.15
2023-02-11T07:20:54.308Z,13.13
2023-02-11T07:22:26.332Z,17.80
2023-02-11T07:23:58.393Z,18.65
2023-02-11T07:25:30.641Z,22.17
2023-02-11T07:27:02.690Z,25.13
2023-02-11T07:28:36.166Z,24.77
2023-02-11T07:31:40.627Z,14.40
2023-02-11T07:33:12.725Z,12.25
2023-02-11T07:34:44.781Z,11.60
2023-02-11T07:36:17.128Z,10.63
2023-02-11T07:37:49.154Z,9.73
2023-02-11T07:39:22.906Z,9.32
2023-02-11T07:40:54.944Z,9.43
2023-02-11T07:42:27.007Z,9.05
2023-02-11T07:43:59.103Z,8.90
2023-02-11T07:45:31.227Z,9.38
2023-02-11T07:48:35.360Z,9.00
2023-02-11T07:50:07.557Z,9.00
2023-02-11T07:51:39.697Z,9.23
2023-02-11T07:53:11.761Z,8.15
2023-02-11T07:54:44.111Z,9.05
2023-02-11T07:56:18.481Z,8.32
2023-02-11T07:57:51.234Z,9.63
2023-02-11T07:59:25.208Z,7.60
2023-02-11T08:01:02.574Z,6.85
2023-02-11T08:02:34.900Z,8.07
2023-02-11T08:04:07.013Z,6.70
2023-02-11T08:05:39.467Z,8.40
2023-02-11T08:07:12.872Z,7.40
2023-02-11T08:08:45.327Z,8.52
2023-02-11T08:10:17.389Z,8.27
2023-02-11T08:11:49.404Z,7.85
2023-02-11T08:13:21.505Z,6.63
2023-02-11T08:14:53.835Z,6.57
2023-02-11T08:16:28.775Z,6.45
2023-02-11T08:18:03.942Z,7.10
2023-02-11T08:19:36.028Z,6.72
2023-02-11T08:21:09.646Z,6.85
2023-02-11T08:24:13.631Z,6.28
2023-02-11T08:25:45.650Z,5.68
2023-02-11T08:27:17.992Z,5.65
2023-02-11T08:28:52.051Z,5.88
2023-02-11T08:30:26.356Z,6.38
2023-02-11T08:31:59.452Z,6.07
2023-02-11T08:33:31.612Z,5.60
2023-02-11T08:35:03.769Z,7.07
2023-02-11T08:36:38.039Z,6.25
2023-02-11T08:38:10.058Z,6.20
2023-02-11T08:39:42.203Z,5.75
2023-02-11T08:41:15.272Z,6.15
2023-02-11T08:42:47.367Z,7.63
2023-02-11T08:44:21.431Z,7.10
2023-02-11T08:45:53.820Z,7.30
2023-02-11T08:47:26.185Z,6.93
2023-02-11T08:48:58.272Z,6.22
2023-02-11T08:50:30.417Z,5.78
2023-02-11T08:52:04.573Z,6.07
2023-02-11T08:53:37.260Z,6.18
2023-02-11T08:55:09.312Z,6.70
2023-02-11T08:56:41.486Z,6.65
2023-02-11T08:58:13.590Z,6.65
2023-02-11T08:59:45.610Z,6.75
2023-02-11T09:01:26.586Z,6.40
2023-02-11T09:02:58.652Z,7.03
2023-02-11T09:04:30.734Z,7.45
2023-02-11T09:06:06.292Z,6.63
2023-02-11T09:07:38.383Z,7.10
2023-02-11T09:09:15.140Z,7.38
2023-02-11T09:10:47.753Z,6.72
2023-02-11T09:12:19.779Z,9.77
2023-02-11T09:13:54.315Z,9.85
2023-02-11T09:15:26.990Z,7.45
2023-02-11T09:16:59.280Z,7.88
2023-02-11T09:18:32.025Z,8.48
2023-02-11T09:20:04.524Z,9.43
2023-02-11T09:21:36.655Z,8.40
2023-02-11T09:23:09.954Z,8.73
2023-02-11T09:24:41.968Z,8.65
2023-02-11T09:26:28.521Z,7.53
2023-02-11T09:28:00.641Z,6.93
2023-02-11T09:29:32.902Z,7.53
2023-02-11T09:31:10.480Z,6.95
2023-02-11T09:32:42.861Z,7.30
2023-02-11T09:34:16.268Z,8.25
2023-02-11T09:35:48.384Z,7.88
2023-02-11T09:37:21.561Z,6.88
2023-02-11T09:38:54.932Z,7.43
2023-02-11T09:40:27.014Z,6.53
2023-02-11T09:42:16.786Z,7.10
2023-02-11T09:43:50.423Z,6.75
2023-02-11T09:46:59.961Z,6.78
2023-02-11T09:48:39.032Z,5.65
2023-02-11T09:50:14.057Z,5.70
2023-02-11T09:51:50.663Z,5.95
2023-02-11T09:53:27.894Z,6.43
2023-02-11T09:55:04.895Z,6.25
2023-02-11T09:56:37.078Z,6.55
2023-02-11T09:58:27.706Z,6.72
2023-02-11T10:00:00.056Z,7.35
2023-02-11T10:01:59.808Z,6.60
2023-02-11T10:03:46.576Z,7.03
2023-02-11T10:05:27.291Z,7.05
2023-02-11T10:07:23.834Z,8.45
2023-02-11T10:09:33.102Z,5.95
2023-02-11T10:11:22.700Z,5.65
2023-02-11T10:13:10.914Z,5.18
2023-02-11T10:15:01.075Z,7.20
2023-02-11T10:17:02.559Z,5.55
2023-02-11T10:18:46.232Z,6.35
2023-02-11T10:20:32.402Z,7.00
2023-02-11T10:22:12.710Z,5.28
2023-02-11T10:23:48.109Z,7.60
2023-02-11T10:25:24.117Z,4.90
2023-02-11T10:26:56.140Z,5.50
2023-02-11T10:28:34.306Z,5.75
2023-02-11T10:30:15.672Z,5.85
2023-02-11T10:31:48.201Z,5.60
2023-02-11T10:33:34.292Z,5.32
2023-02-11T10:35:15.912Z,5.95
2023-02-11T10:36:48.121Z,5.85
2023-02-11T10:38:20.189Z,5.82
2023-02-11T10:39:52.205Z,5.70
2023-02-11T10:41:31.006Z,5.53
2023-02-11T10:43:08.901Z,5.45
2023-02-11T10:44:55.758Z,6.10
2023-02-11T10:46:33.568Z,5.60
2023-02-11T10:48:07.139Z,6.25
2023-02-11T10:51:26.507Z,5.95
2023-02-11T10:53:20.100Z,5.03
2023-02-11T10:55:02.428Z,5.93
2023-02-11T10:56:37.114Z,5.50
2023-02-11T10:58:24.612Z,6.55
2023-02-11T11:00:05.693Z,6.13
2023-02-11T11:01:41.154Z,6.32
2023-02-11T11:03:39.475Z,6.68
2023-02-11T11:05:27.732Z,7.43
2023-02-11T11:07:20.827Z,7.63
2023-02-11T11:08:52.926Z,8.32
2023-02-11T11:10:37.172Z,8.32
2023-02-11T11:12:42.339Z,8.70
2023-02-11T11:14:20.830Z,8.13
2023-02-11T11:16:07.505Z,8.60
2023-02-11T11:17:39.599Z,8.30
2023-02-11T11:19:13.682Z,8.95
2023-02-11T11:21:01.072Z,7.85
2023-02-11T11:22:33.192Z,8.27
2023-02-11T11:24:05.473Z,8.07
2023-02-11T11:25:40.240Z,9.05
2023-02-11T11:27:19.144Z,8.05
2023-02-11T11:28:55.211Z,7.70
2023-02-11T11:30:54.580Z,7.80
2023-02-11T11:32:36.261Z,7.18
2023-02-11T11:34:38.584Z,7.00
2023-02-11T11:36:13.479Z,8.55
2023-02-11T11:37:46.421Z,8.43
2023-02-11T11:39:31.259Z,7.72
2023-02-11T11:41:16.779Z,7.57
2023-02-11T11:43:05.050Z,7.00
2023-02-11T11:44:40.181Z,8.13
2023-02-11T11:46:26.967Z,8.35
2023-02-11T11:48:19.115Z,7.47
2023-02-11T11:50:11.746Z,8.07
2023-02-11T11:51:49.169Z,8.18
2023-02-11T11:55:31.863Z,8.38
2023-02-11T11:57:17.105Z,7.90
2023-02-11T11:58:50.489Z,8.02
2023-02-11T12:00:30.176Z,8.63
2023-02-11T12:02:32.274Z,8.27
2023-02-11T12:04:32.017Z,8.30
2023-02-11T12:06:22.718Z,7.50
2023-02-11T12:08:22.060Z,7.07
2023-02-11T12:09:56.766Z,8.02
2023-02-11T12:11:36.538Z,8.00
2023-02-11T12:13:18.676Z,8.57
2023-02-11T12:15:09.302Z,7.68
2023-02-11T12:17:24.341Z,8.43
2023-02-11T12:19:19.668Z,8.80
2023-02-11T12:21:10.209Z,8.13
2023-02-11T12:23:00.033Z,8.20
2023-02-11T12:24:53.657Z,8.00
2023-02-11T12:26:48.553Z,7.60
2023-02-11T12:28:46.196Z,7.82
2023-02-11T12:30:24.267Z,8.35
2023-02-11T12:32:21.990Z,7.97
2023-02-11T12:34:23.102Z,8.68
2023-02-11T12:35:59.096Z,8.55
2023-02-11T12:37:42.954Z,7.57
2023-02-11T12:39:35.352Z,8.48
2023-02-11T12:41:53.531Z,8.38
2023-02-11T12:43:35.052Z,8.20
2023-02-11T12:45:10.016Z,8.82
2023-02-11T12:47:07.060Z,8.52
2023-02-11T12:49:06.304Z,8.05
2023-02-11T12:50:53.758Z,8.27
2023-02-11T12:52:33.393Z,8.43
2023-02-11T12:54:52.389Z,8.88
2023-02-11T12:56:40.936Z,9.18
2023-02-11T12:58:16.922Z,8.70
2023-02-11T12:59:57.004Z,9.18
2023-02-11T13:01:36.373Z,8.18
2023-02-11T13:03:21.499Z,8.95
2023-02-11T13:05:19.173Z,8.82
2023-02-11T13:07:05.788Z,8.77
2023-02-11T13:08:43.186Z,8.73
2023-02-11T13:10:15.993Z,8.55
2023-02-11T13:11:52.286Z,9.10
2023-02-11T13:13:32.171Z,9.25
2023-02-11T13:15:07.824Z,9.43
2023-02-11T13:16:42.700Z,9.15
2023-02-11T13:18:27.186Z,8.85
2023-02-11T13:20:03.710Z,8.80
2023-02-11T13:22:13.541Z,8.82
2023-02-11T13:24:16.357Z,8.82
2023-02-11T13:25:51.648Z,7.85
2023-02-11T13:27:38.187Z,8.60
2023-02-11T13:29:28.082Z,8.35
2023-02-11T13:31:04.311Z,7.97
2023-02-11T13:32:54.978Z,8.73
2023-02-11T13:34:47.005Z,8.35
2023-02-11T13:36:26.895Z,9.18
2023-02-11T13:38:04.665Z,8.23
2023-02-11T13:39:36.660Z,8.60
2023-02-11T13:41:25.005Z,8.20
2023-02-11T13:42:59.014Z,8.10
2023-02-11T13:44:34.329Z,7.80
2023-02-11T13:46:10.455Z,8.48
2023-02-11T13:47:42.593Z,7.68
2023-02-11T13:49:25.391Z,7.70
2023-02-11T13:51:03.527Z,8.07
2023-02-11T13:52:37.859Z,7.82
2023-02-11T13:55:48.098Z,8.02
2023-02-11T13:57:20.046Z,7.07
2023-02-11T13:58:52.125Z,8.65
2023-02-11T14:00:36.522Z,7.57
2023-02-11T14:02:48.753Z,8.73
2023-02-11T14:04:43.917Z,8.57
2023-02-11T14:06:38.324Z,8.13
2023-02-11T14:08:28.876Z,7.68
2023-02-11T14:10:00.885Z,7.85
2023-02-11T14:11:37.417Z,8.15
2023-02-11T14:13:31.802Z,8.30
2023-02-11T14:15:07.995Z,8.20
2023-02-11T14:17:00.220Z,7.32
2023-02-11T14:18:59.845Z,8.40
2023-02-11T14:20:40.930Z,7.93
2023-02-11T14:22:48.085Z,8.13
2023-02-11T14:24:20.628Z,8.25
2023-02-11T14:26:02.140Z,8.30
2023-02-11T14:27:44.376Z,7.82
2023-02-11T14:29:17.888Z,8.40
2023-02-11T14:31:14.417Z,7.65
2023-02-11T15:24:01.937Z,9.00
2023-02-11T15:25:34.443Z,8.43
2023-02-11T15:27:13.054Z,8.73
2023-02-11T15:28:52.438Z,8.82
2023-02-11T15:30:27.605Z,9.00
2023-02-11T15:32:18.786Z,8.40
2023-02-11T15:33:51.988Z,8.63
2023-02-11T15:35:36.990Z,9.15
2023-02-11T15:37:14.824Z,11.05
2023-02-11T15:38:47.138Z,11.63
2023-02-11T15:40:23.242Z,13.90
2023-02-11T15:41:55.718Z,12.90
2023-02-11T15:43:46.065Z,10.95
2023-02-11T15:45:18.165Z,17.08
2023-02-11T15:46:50.364Z,21.23
2023-02-11T15:48:27.162Z,21.58
2023-02-11T15:49:59.639Z,34.05
2023-02-11T15:51:37.048Z,17.02
2023-02-11T15:53:23.524Z,16.48
2023-02-11T15:54:57.055Z,14.45
2023-02-11T15:58:02.539Z,18.95
2023-02-11T15:59:41.458Z,16.80
2023-02-11T16:01:13.807Z,15.07
2023-02-11T16:02:46.421Z,16.63
2023-02-11T16:04:21.136Z,20.30
2023-02-11T16:05:53.208Z,22.67
2023-02-11T16:07:57.690Z,32.17
2023-02-11T16:09:35.421Z,19.95
2023-02-11T16:11:10.092Z,24.20
2023-02-11T16:12:42.117Z,21.27
2023-02-11T16:14:27.614Z,17.70
2023-02-11T16:16:24.770Z,17.40
2023-02-11T16:17:57.219Z,18.08
2023-02-11T16:19:29.447Z,16.13
2023-02-11T16:21:02.677Z,22.35
2023-02-11T16:22:38.395Z,21.02
2023-02-11T16:24:22.039Z,18.63
2023-02-11T16:26:01.889Z,21.27
2023-02-11T16:27:38.977Z,20.45
2023-02-11T16:29:14.380Z,25.73
2023-02-11T16:30:46.527Z,24.55
2023-02-11T16:32:21.159Z,28.15
2023-02-11T16:33:53.157Z,57.13
2023-02-11T16:35:25.224Z,74.00
2023-02-11T16:36:57.241Z,61.35
2023-02-11T16:38:30.361Z,47.30
2023-02-11T16:40:02.517Z,48.63
2023-02-11T16:41:34.760Z,40.88
2023-02-11T16:43:06.964Z,27.52
2023-02-11T16:44:42.843Z,38.42
2023-02-11T16:46:16.129Z,40.38
2023-02-11T16:47:48.295Z,49.63
2023-02-11T16:49:25.364Z,45.42
2023-02-11T16:50:57.751Z,50.00
2023-02-11T16:52:32.082Z,32.25
2023-02-11T16:54:04.443Z,21.27
2023-02-11T16:55:36.550Z,17.80
2023-02-11T16:57:34.908Z,24.35
2023-02-11T16:59:07.176Z,23.38
2023-02-11T17:00:39.445Z,20.38
2023-02-11T17:02:23.906Z,16.85
2023-02-11T17:03:56.219Z,15.40
2023-02-11T17:05:28.503Z,18.02
2023-02-11T17:07:00.558Z,13.70
2023-02-11T17:08:32.928Z,13.88
2023-02-11T17:10:27.525Z,12.25
2023-02-11T17:13:32.074Z,9.98
2023-02-11T17:15:06.638Z,10.38
2023-02-11T17:16:39.882Z,11.10
2023-02-11T17:18:15.187Z,11.98
2023-02-11T17:19:48.223Z,14.27
2023-02-11T17:21:20.360Z,19.90
2023-02-11T17:22:52.936Z,20.85
2023-02-11T17:24:25.147Z,26.65
2023-02-11T17:25:57.599Z,24.80
2023-02-11T17:27:29.655Z,25.48
2023-02-11T17:29:01.835Z,29.42
2023-02-11T17:30:34.016Z,32.25
2023-02-11T17:32:08.579Z,25.55
2023-02-11T17:33:41.004Z,28.80
2023-02-11T17:35:13.055Z,28.38
2023-02-11T17:36:45.339Z,28.02
2023-02-11T17:38:19.868Z,30.90
2023-02-11T17:39:52.097Z,27.15
2023-02-11T17:41:24.541Z,25.25
2023-02-11T17:42:56.510Z,19.90
2023-02-11T17:44:28.609Z,17.83
2023-02-11T17:46:00.998Z,12.43
2023-02-11T17:47:33.412Z,11.75
2023-02-11T17:49:05.972Z,11.73
2023-02-11T17:50:38.139Z,10.95
2023-02-11T17:52:11.456Z,10.32
2023-02-11T17:53:43.630Z,11.70
2023-02-11T17:55:15.831Z,13.95
2023-02-11T17:56:50.969Z,12.20
2023-02-11T17:58:23.978Z,11.00
2023-02-11T17:59:56.102Z,10.18
2023-02-11T18:01:29.494Z,9.82
2023-02-11T18:03:04.422Z,17.70
2023-02-11T18:04:36.865Z,20.90
2023-02-11T18:06:08.938Z,24.30
2023-02-11T18:07:41.055Z,22.80
2023-02-11T18:09:13.404Z,19.27
2023-02-11T18:10:45.852Z,20.20
2023-02-11T18:12:25.475Z,21.45
2023-02-11T18:14:01.851Z,18.67
2023-02-11T18:15:34.273Z,22.05
2023-02-11T18:17:06.582Z,18.10
2023-02-11T18:18:38.638Z,12.88
2023-02-11T18:20:11.168Z,11.63
2023-02-11T18:21:43.519Z,11.52
2023-02-11T18:23:15.692Z,10.77
2023-02-11T18:24:54.965Z,10.73
2023-02-11T18:26:28.395Z,9.70
2023-02-11T18:28:00.643Z,10.27
2023-02-11T18:29:32.871Z,9.93
2023-02-11T18:31:05.991Z,10.05
2023-02-11T18:32:38.102Z,9.35
2023-02-11T18:34:11.351Z,9.50
2023-02-11T18:35:43.771Z,10.10
2023-02-11T18:38:53.875Z,9.43
2023-02-11T18:40:26.104Z,10.95
2023-02-11T18:41:59.277Z,11.23
2023-02-11T18:43:34.752Z,10.80
2023-02-11T18:45:09.884Z,10.32
2023-02-11T18:46:42.015Z,18.05
2023-02-11T18:48:14.797Z,18.83
2023-02-11T18:49:46.828Z,24.25
2023-02-11T18:51:19.317Z,38.10
2023-02-11T18:52:51.372Z,43.78
2023-02-11T18:54:23.548Z,61.13
2023-02-11T18:55:55.825Z,43.58
2023-02-11T18:57:28.112Z,35.50
2023-02-11T18:59:01.669Z,32.08
2023-02-11T19:02:05.945Z,27.00
2023-02-11T19:03:38.253Z,26.13
2023-02-11T19:05:10.397Z,26.92
2023-02-11T19:06:45.360Z,25.63
2023-02-11T19:08:17.579Z,15.65
2023-02-11T19:09:49.649Z,13.65
2023-02-11T19:11:41.947Z,13.30
2023-02-11T19:13:14.447Z,12.55
2023-02-11T19:14:46.486Z,15.30
2023-02-11T19:16:20.155Z,11.23
2023-02-11T19:17:52.384Z,12.38
2023-02-11T19:19:27.242Z,18.48
2023-02-11T19:20:59.356Z,24.92
2023-02-11T19:24:08.310Z,22.25
2023-02-11T19:25:47.318Z,19.70
2023-02-11T19:27:19.369Z,22.75
2023-02-11T19:28:51.501Z,24.13
2023-02-11T19:30:23.613Z,30.35
2023-02-11T19:31:56.105Z,29.77
2023-02-11T19:33:28.273Z,19.58
2023-02-11T19:35:00.401Z,16.83
2023-02-11T19:36:32.565Z,17.80
2023-02-11T19:38:05.884Z,20.63
2023-02-11T19:39:38.176Z,23.35
2023-02-11T19:41:11.490Z,24.55
2023-02-11T19:42:44.097Z,24.05
2023-02-11T19:44:17.004Z,23.42
2023-02-11T19:45:49.132Z,26.13
2023-02-11T19:47:28.032Z,25.58
2023-02-11T19:49:01.329Z,23.33
2023-02-11T19:50:33.901Z,25.27
2023-02-11T19:52:06.043Z,21.60
2023-02-11T19:53:38.104Z,21.83
2023-02-11T19:55:10.208Z,17.55
2023-02-11T19:56:42.265Z,17.67
2023-02-11T19:58:14.848Z,21.77
2023-02-11T19:59:46.875Z,23.17
2023-02-11T20:01:20.919Z,25.48
2023-02-11T20:02:52.975Z,26.92
2023-02-11T20:04:25.437Z,26.85
2023-02-11T20:05:57.458Z,21.83
2023-02-11T20:07:30.611Z,18.88
2023-02-11T20:09:06.518Z,22.38
2023-02-11T20:10:38.702Z,23.20
2023-02-11T20:12:12.366Z,26.40
2023-02-11T20:13:44.614Z,27.55
2023-02-11T20:15:16.710Z,28.75
2023-02-11T20:16:50.273Z,27.63
2023-02-11T20:19:54.561Z,25.13
2023-02-11T20:21:29.188Z,21.55
2023-02-11T20:23:01.363Z,30.88
2023-02-11T20:24:33.541Z,28.50
2023-02-11T20:26:11.185Z,15.38
2023-02-11T20:27:43.193Z,13.13
2023-02-11T20:29:16.812Z,12.00
2023-02-11T20:32:32.770Z,12.57
2023-02-11T20:34:05.045Z,14.10
2023-02-11T20:35:37.401Z,17.45
2023-02-11T20:37:10.258Z,18.52
2023-02-11T20:38:42.474Z,19.05
2023-02-11T20:40:14.552Z,20.55
2023-02-11T20:41:46.830Z,19.05
2023-02-11T20:43:19.631Z,16.30
2023-02-11T20:44:51.816Z,14.73
2023-02-11T20:46:27.097Z,14.18
2023-02-11T20:47:59.108Z,14.18
2023-02-11T20:49:31.306Z,20.17
2023-02-11T20:51:24.279Z,24.08
2023-02-11T20:52:56.381Z,14.65
2023-02-11T20:54:28.874Z,13.00
2023-02-11T20:56:09.638Z,10.38
2023-02-11T20:57:41.664Z,10.00
2023-02-11T20:59:14.456Z,11.57
2023-02-11T21:00:46.515Z,12.65
2023-02-11T21:02:18.518Z,11.48
2023-02-11T21:03:58.599Z,16.35
2023-02-11T21:05:31.146Z,22.45
2023-02-11T21:07:03.474Z,15.30
2023-02-11T21:08:35.697Z,16.75
2023-02-11T21:10:09.076Z,18.42
2023-02-11T21:11:42.168Z,21.25
2023-02-11T21:13:14.299Z,29.20
2023-02-11T21:14:46.577Z,16.33
2023-02-11T21:16:20.861Z,21.52
2023-02-11T21:17:53.107Z,17.90
2023-02-11T21:19:25.296Z,13.02
2023-02-11T21:20:58.200Z,13.63
2023-02-11T21:22:30.422Z,22.45
2023-02-11T21:24:02.707Z,13.38
2023-02-11T21:25:34.701Z,14.20
2023-02-11T21:27:06.761Z,12.30
2023-02-11T21:28:41.072Z,11.45
2023-02-11T21:30:14.512Z,14.65
2023-02-11T21:31:46.741Z,15.13
2023-02-11T21:33:18.866Z,12.20
2023-02-11T21:34:51.063Z,10.75
2023-02-11T21:36:23.866Z,9.57
2023-02-11T21:37:55.981Z,9.07
2023-02-11T21:39:28.175Z,10.10
2023-02-11T21:41:04.793Z,8.50
2023-02-11T21:42:37.029Z,9.13
2023-02-11T21:44:09.677Z,9.40
2023-02-11T21:45:46.327Z,8.33
2023-02-11T21:47:18.340Z,10.70
2023-02-11T21:48:50.485Z,26.33
2023-02-11T21:50:22.523Z,13.57
2023-02-11T21:51:54.506Z,14.10
2023-02-11T21:53:26.568Z,12.07
2023-02-11T21:54:58.544Z,11.82
2023-02-11T21:56:32.172Z,10.80
2023-02-11T21:59:36.435Z,10.77
2023-02-11T22:01:29.766Z,12.32
2023-02-11T22:03:01.895Z,12.30
2023-02-11T22:04:34.132Z,13.82
2023-02-11T22:06:11.290Z,17.27
2023-02-11T22:07:43.334Z,10.38
2023-02-11T22:09:15.542Z,10.00
2023-02-11T22:10:47.719Z,9.43
2023-02-11T22:12:19.867Z,11.77
2023-02-11T22:13:56.404Z,10.60
2023-02-11T22:15:28.512Z,9.52
2023-02-11T22:17:00.550Z,10.35
2023-02-11T22:18:33.340Z,23.50
2023-02-11T22:20:06.811Z,33.13
2023-02-11T22:21:38.958Z,19.33
2023-02-11T22:23:11.034Z,25.15
2023-02-11T22:24:43.452Z,17.05
2023-02-11T22:26:17.988Z,19.40
2023-02-11T22:27:50.000Z,17.75
2023-02-11T22:29:22.143Z,11.93
2023-02-11T22:30:56.163Z,11.77